sensor_id;sensor_type;location;lat;lon;timestamp;temperature;humidity
20862;DHT22;10591;52.532;13.348;2023-07-31T00:01:34;15.05;84.28
20862;DHT22;10591;52.532;13.348;2023-07-31T00:04:05;14.94;84.52
20862;DHT22;10591;52.532;13.348;2023-07-31T00:06:42;15.09;84.24
20862;DHT22;10591;52.532;13.348;2023-07-31T00:09:12;14.91;85.16
20862;DHT22;10591;52.532;13.348;2023-07-31T00:11:42;14.82;85.58
20862;DHT22;10591;52.532;13.348;2023-07-31T00:14:13;14.80;85.43
20862;DHT22;10591;52.532;13.348;2023-07-31T00:16:43;14.90;85.35
20862;DHT22;10591;52.532;13.348;2023-07-31T00:19:14;15.02;85.14
20862;DHT22;10591;52.532;13.348;2023-07-31T00:21:45;14.92;85.21
20862;DHT22;10591;52.532;13.348;2023-07-31T00:24:16;15.12;85.11
20862;DHT22;10591;52.532;13.348;2023-07-31T00:26:47;15.10;84.97
20862;DHT22;10591;52.532;13.348;2023-07-31T00:29:18;15.24;84.18
20862;DHT22;10591;52.532;13.348;2023-07-31T00:31:49;15.20;84.02
20862;DHT22;10591;52.532;13.348;2023-07-31T00:34:20;15.26;83.85
20862;DHT22;10591;52.532;13.348;2023-07-31T00:36:50;15.32;83.86
20862;DHT22;10591;52.532;13.348;2023-07-31T00:39:21;15.24;84.28
20862;DHT22;10591;52.532;13.348;2023-07-31T00:41:51;15.33;84.20
20862;DHT22;10591;52.532;13.348;2023-07-31T00:44:22;15.24;84.25
20862;DHT22;10591;52.532;13.348;2023-07-31T00:46:53;15.28;84.34
20862;DHT22;10591;52.532;13.348;2023-07-31T00:49:24;15.30;84.58
20862;DHT22;10591;52.532;13.348;2023-07-31T00:51:55;15.27;84.72
20862;DHT22;10591;52.532;13.348;2023-07-31T00:54:27;15.38;84.57
20862;DHT22;10591;52.532;13.348;2023-07-31T00:56:58;15.46;84.47
20862;DHT22;10591;52.532;13.348;2023-07-31T00:59:28;15.42;84.56
20862;DHT22;10591;52.532;13.348;2023-07-31T01:02:00;15.48;84.48
20862;DHT22;10591;52.532;13.348;2023-07-31T01:04:32;15.62;84.31
20862;DHT22;10591;52.532;13.348;2023-07-31T01:07:09;15.49;84.26
20862;DHT22;10591;52.532;13.348;2023-07-31T01:09:46;15.48;84.43
20862;DHT22;10591;52.532;13.348;2023-07-31T01:12:17;15.39;84.53
20862;DHT22;10591;52.532;13.348;2023-07-31T01:15:07;15.49;84.33
20862;DHT22;10591;52.532;13.348;2023-07-31T01:17:40;15.53;84.34
20862;DHT22;10591;52.532;13.348;2023-07-31T01:20:24;15.62;84.31
20862;DHT22;10591;52.532;13.348;2023-07-31T01:23:19;15.64;84.37
20862;DHT22;10591;52.532;13.348;2023-07-31T01:26:11;15.58;85.13
20862;DHT22;10591;52.532;13.348;2023-07-31T01:31:24;15.66;84.62
20862;DHT22;10591;52.532;13.348;2023-07-31T01:34:00;15.46;84.74
20862;DHT22;10591;52.532;13.348;2023-07-31T01:36:32;15.46;84.96
20862;DHT22;10591;52.532;13.348;2023-07-31T01:39:03;15.47;85.35
20862;DHT22;10591;52.532;13.348;2023-07-31T01:41:34;15.49;85.66
20862;DHT22;10591;52.532;13.348;2023-07-31T01:44:05;15.47;85.82
20862;DHT22;10591;52.532;13.348;2023-07-31T01:46:36;15.53;85.52
20862;DHT22;10591;52.532;13.348;2023-07-31T01:49:07;15.54;85.34
20862;DHT22;10591;52.532;13.348;2023-07-31T01:51:38;15.48;85.54
20862;DHT22;10591;52.532;13.348;2023-07-31T01:54:08;15.62;85.14
20862;DHT22;10591;52.532;13.348;2023-07-31T01:56:39;15.47;84.96
20862;DHT22;10591;52.532;13.348;2023-07-31T01:59:10;15.62;85.23
20862;DHT22;10591;52.532;13.348;2023-07-31T02:01:41;15.62;85.04
20862;DHT22;10591;52.532;13.348;2023-07-31T02:04:11;15.64;85.43
20862;DHT22;10591;52.532;13.348;2023-07-31T02:06:43;15.64;85.04
20862;DHT22;10591;52.532;13.348;2023-07-31T02:09:14;15.60;85.09
20862;DHT22;10591;52.532;13.348;2023-07-31T02:11:45;15.64;85.31
20862;DHT22;10591;52.532;13.348;2023-07-31T02:14:16;15.71;84.77
20862;DHT22;10591;52.532;13.348;2023-07-31T02:16:47;15.70;84.99
20862;DHT22;10591;52.532;13.348;2023-07-31T02:19:17;15.61;85.28
20862;DHT22;10591;52.532;13.348;2023-07-31T02:21:49;15.60;85.37
20862;DHT22;10591;52.532;13.348;2023-07-31T02:24:20;15.50;85.35
20862;DHT22;10591;52.532;13.348;2023-07-31T02:26:50;15.60;85.28
20862;DHT22;10591;52.532;13.348;2023-07-31T02:29:21;15.44;85.98
20862;DHT22;10591;52.532;13.348;2023-07-31T02:31:52;15.62;85.67
20862;DHT22;10591;52.532;13.348;2023-07-31T02:34:23;15.58;85.90
20862;DHT22;10591;52.532;13.348;2023-07-31T02:36:55;15.54;85.51
20862;DHT22;10591;52.532;13.348;2023-07-31T02:39:25;15.63;85.43
20862;DHT22;10591;52.532;13.348;2023-07-31T02:41:56;15.58;85.01
20862;DHT22;10591;52.532;13.348;2023-07-31T02:44:26;15.59;84.89
20862;DHT22;10591;52.532;13.348;2023-07-31T02:46:57;15.64;84.63
20862;DHT22;10591;52.532;13.348;2023-07-31T02:49:27;15.66;85.05
20862;DHT22;10591;52.532;13.348;2023-07-31T02:51:58;15.60;85.23
20862;DHT22;10591;52.532;13.348;2023-07-31T02:54:28;15.68;85.32
20862;DHT22;10591;52.532;13.348;2023-07-31T02:56:59;15.72;84.38
20862;DHT22;10591;52.532;13.348;2023-07-31T02:59:30;15.68;84.76
20862;DHT22;10591;52.532;13.348;2023-07-31T03:02:00;15.62;85.21
20862;DHT22;10591;52.532;13.348;2023-07-31T03:04:31;15.50;84.75
20862;DHT22;10591;52.532;13.348;2023-07-31T03:07:01;15.59;85.37
20862;DHT22;10591;52.532;13.348;2023-07-31T03:09:32;15.62;85.23
20862;DHT22;10591;52.532;13.348;2023-07-31T03:12:03;15.82;84.41
20862;DHT22;10591;52.532;13.348;2023-07-31T03:14:34;15.72;84.51
20862;DHT22;10591;52.532;13.348;2023-07-31T03:17:04;15.60;84.75
20862;DHT22;10591;52.532;13.348;2023-07-31T03:19:35;15.65;84.59
20862;DHT22;10591;52.532;13.348;2023-07-31T03:22:06;15.66;84.81
20862;DHT22;10591;52.532;13.348;2023-07-31T03:24:36;15.55;85.02
20862;DHT22;10591;52.532;13.348;2023-07-31T03:27:08;15.78;84.79
20862;DHT22;10591;52.532;13.348;2023-07-31T03:29:39;15.67;84.35
20862;DHT22;10591;52.532;13.348;2023-07-31T03:32:10;15.62;84.75
20862;DHT22;10591;52.532;13.348;2023-07-31T03:34:40;15.70;84.33
20862;DHT22;10591;52.532;13.348;2023-07-31T03:37:11;15.66;84.78
20862;DHT22;10591;52.532;13.348;2023-07-31T03:39:42;15.66;85.10
20862;DHT22;10591;52.532;13.348;2023-07-31T03:42:12;15.77;84.83
20862;DHT22;10591;52.532;13.348;2023-07-31T03:44:43;15.66;84.88
20862;DHT22;10591;52.532;13.348;2023-07-31T03:47:14;15.67;84.74
20862;DHT22;10591;52.532;13.348;2023-07-31T03:49:45;15.72;84.92
20862;DHT22;10591;52.532;13.348;2023-07-31T03:52:15;15.71;84.91
20862;DHT22;10591;52.532;13.348;2023-07-31T03:54:46;15.81;84.80
20862;DHT22;10591;52.532;13.348;2023-07-31T03:57:18;15.72;84.87
20862;DHT22;10591;52.532;13.348;2023-07-31T03:59:49;15.81;84.36
20862;DHT22;10591;52.532;13.348;2023-07-31T04:02:19;15.78;84.40
20862;DHT22;10591;52.532;13.348;2023-07-31T04:04:51;15.76;84.83
20862;DHT22;10591;52.532;13.348;2023-07-31T04:07:22;15.84;84.71
20862;DHT22;10591;52.532;13.348;2023-07-31T04:09:53;15.81;84.71
20862;DHT22;10591;52.532;13.348;2023-07-31T04:12:23;15.71;84.51
20862;DHT22;10591;52.532;13.348;2023-07-31T04:14:55;15.80;84.29
20862;DHT22;10591;52.532;13.348;2023-07-31T04:17:26;15.88;84.03
20862;DHT22;10591;52.532;13.348;2023-07-31T04:19:57;15.94;83.61
20862;DHT22;10591;52.532;13.348;2023-07-31T04:22:28;15.96;83.27
20862;DHT22;10591;52.532;13.348;2023-07-31T04:25:00;15.92;83.55
20862;DHT22;10591;52.532;13.348;2023-07-31T04:27:30;15.93;83.41
20862;DHT22;10591;52.532;13.348;2023-07-31T04:30:01;16.06;83.73
20862;DHT22;10591;52.532;13.348;2023-07-31T04:32:33;16.12;82.99
20862;DHT22;10591;52.532;13.348;2023-07-31T04:35:05;16.11;82.67
20862;DHT22;10591;52.532;13.348;2023-07-31T04:37:36;16.19;82.80
20862;DHT22;10591;52.532;13.348;2023-07-31T04:40:09;16.28;81.96
20862;DHT22;10591;52.532;13.348;2023-07-31T04:42:39;16.20;82.01
20862;DHT22;10591;52.532;13.348;2023-07-31T04:45:10;16.30;82.18
20862;DHT22;10591;52.532;13.348;2023-07-31T04:47:41;16.20;82.09
20862;DHT22;10591;52.532;13.348;2023-07-31T04:50:11;16.04;82.80
20862;DHT22;10591;52.532;13.348;2023-07-31T04:52:42;16.25;82.40
20862;DHT22;10591;52.532;13.348;2023-07-31T04:55:12;16.22;82.31
20862;DHT22;10591;52.532;13.348;2023-07-31T04:57:43;16.23;82.19
20862;DHT22;10591;52.532;13.348;2023-07-31T05:00:14;16.34;82.22
20862;DHT22;10591;52.532;13.348;2023-07-31T05:02:45;16.38;81.73
20862;DHT22;10591;52.532;13.348;2023-07-31T05:05:16;16.28;82.40
20862;DHT22;10591;52.532;13.348;2023-07-31T05:07:47;16.49;82.20
20862;DHT22;10591;52.532;13.348;2023-07-31T05:10:18;16.44;81.95
20862;DHT22;10591;52.532;13.348;2023-07-31T05:12:48;16.56;81.57
20862;DHT22;10591;52.532;13.348;2023-07-31T05:15:19;16.78;81.40
20862;DHT22;10591;52.532;13.348;2023-07-31T05:17:50;16.86;81.61
20862;DHT22;10591;52.532;13.348;2023-07-31T05:20:24;17.04;80.09
20862;DHT22;10591;52.532;13.348;2023-07-31T05:22:58;16.99;80.61
20862;DHT22;10591;52.532;13.348;2023-07-31T05:25:29;17.13;80.64
20862;DHT22;10591;52.532;13.348;2023-07-31T05:27:59;17.26;80.44
20862;DHT22;10591;52.532;13.348;2023-07-31T05:30:31;17.20;80.35
20862;DHT22;10591;52.532;13.348;2023-07-31T05:33:01;17.22;80.48
20862;DHT22;10591;52.532;13.348;2023-07-31T05:35:32;17.25;80.72
20862;DHT22;10591;52.532;13.348;2023-07-31T05:38:03;17.33;80.05
20862;DHT22;10591;52.532;13.348;2023-07-31T05:40:34;17.58;79.51
20862;DHT22;10591;52.532;13.348;2023-07-31T05:43:05;17.48;79.10
20862;DHT22;10591;52.532;13.348;2023-07-31T05:45:37;17.62;78.86
20862;DHT22;10591;52.532;13.348;2023-07-31T05:48:08;17.51;79.01
20862;DHT22;10591;52.532;13.348;2023-07-31T05:50:39;17.39;79.42
20862;DHT22;10591;52.532;13.348;2023-07-31T05:53:10;17.21;80.02
20862;DHT22;10591;52.532;13.348;2023-07-31T05:55:40;17.35;79.65
20862;DHT22;10591;52.532;13.348;2023-07-31T05:58:11;17.49;79.01
20862;DHT22;10591;52.532;13.348;2023-07-31T06:00:41;17.24;79.87
20862;DHT22;10591;52.532;13.348;2023-07-31T06:03:12;17.23;80.19
20862;DHT22;10591;52.532;13.348;2023-07-31T06:05:44;17.51;79.80
20862;DHT22;10591;52.532;13.348;2023-07-31T06:08:26;17.49;79.67
20862;DHT22;10591;52.532;13.348;2023-07-31T06:10:56;17.61;79.09
20862;DHT22;10591;52.532;13.348;2023-07-31T06:13:27;17.80;79.00
20862;DHT22;10591;52.532;13.348;2023-07-31T06:15:57;17.94;78.53
20862;DHT22;10591;52.532;13.348;2023-07-31T06:18:29;17.64;79.30
20862;DHT22;10591;52.532;13.348;2023-07-31T06:21:00;17.55;79.89
20862;DHT22;10591;52.532;13.348;2023-07-31T06:23:30;17.90;78.50
20862;DHT22;10591;52.532;13.348;2023-07-31T06:26:01;18.04;78.48
20862;DHT22;10591;52.532;13.348;2023-07-31T06:28:32;17.99;79.09
20862;DHT22;10591;52.532;13.348;2023-07-31T06:31:02;18.16;78.14
20862;DHT22;10591;52.532;13.348;2023-07-31T06:33:33;18.22;78.24
20862;DHT22;10591;52.532;13.348;2023-07-31T06:36:04;18.28;78.09
20862;DHT22;10591;52.532;13.348;2023-07-31T06:38:35;18.58;77.57
20862;DHT22;10591;52.532;13.348;2023-07-31T06:41:09;18.91;77.12
20862;DHT22;10591;52.532;13.348;2023-07-31T06:43:40;19.20;75.80
20862;DHT22;10591;52.532;13.348;2023-07-31T06:46:10;19.35;75.43
20862;DHT22;10591;52.532;13.348;2023-07-31T06:48:41;19.16;75.02
20862;DHT22;10591;52.532;13.348;2023-07-31T06:51:16;18.91;75.66
20862;DHT22;10591;52.532;13.348;2023-07-31T06:53:49;18.90;75.47
20862;DHT22;10591;52.532;13.348;2023-07-31T06:56:21;18.73;76.05
20862;DHT22;10591;52.532;13.348;2023-07-31T06:58:55;18.92;75.79
20862;DHT22;10591;52.532;13.348;2023-07-31T07:01:25;18.91;75.88
20862;DHT22;10591;52.532;13.348;2023-07-31T07:03:57;19.42;74.26
20862;DHT22;10591;52.532;13.348;2023-07-31T07:06:28;19.23;75.03
20862;DHT22;10591;52.532;13.348;2023-07-31T07:08:58;19.32;74.86
20862;DHT22;10591;52.532;13.348;2023-07-31T07:11:31;18.93;75.51
20862;DHT22;10591;52.532;13.348;2023-07-31T07:14:02;18.49;76.23
20862;DHT22;10591;52.532;13.348;2023-07-31T07:16:35;18.34;77.07
20862;DHT22;10591;52.532;13.348;2023-07-31T07:19:07;18.41;77.04
20862;DHT22;10591;52.532;13.348;2023-07-31T07:21:37;18.50;76.96
20862;DHT22;10591;52.532;13.348;2023-07-31T07:24:12;18.68;76.49
20862;DHT22;10591;52.532;13.348;2023-07-31T07:26:43;18.85;76.39
20862;DHT22;10591;52.532;13.348;2023-07-31T07:29:13;18.82;76.49
20862;DHT22;10591;52.532;13.348;2023-07-31T07:31:44;18.86;75.81
20862;DHT22;10591;52.532;13.348;2023-07-31T07:34:15;18.76;75.52
20862;DHT22;10591;52.532;13.348;2023-07-31T07:36:45;18.74;76.27
20862;DHT22;10591;52.532;13.348;2023-07-31T07:39:17;18.77;76.67
20862;DHT22;10591;52.532;13.348;2023-07-31T07:41:47;18.80;76.59
20862;DHT22;10591;52.532;13.348;2023-07-31T07:44:18;19.29;75.39
20862;DHT22;10591;52.532;13.348;2023-07-31T07:46:49;19.11;74.95
20862;DHT22;10591;52.532;13.348;2023-07-31T07:49:20;19.23;74.83
20862;DHT22;10591;52.532;13.348;2023-07-31T07:51:52;18.77;76.51
20862;DHT22;10591;52.532;13.348;2023-07-31T07:54:22;18.36;77.92
20862;DHT22;10591;52.532;13.348;2023-07-31T07:56:53;18.26;79.15
20862;DHT22;10591;52.532;13.348;2023-07-31T07:59:25;18.04;79.69
20862;DHT22;10591;52.532;13.348;2023-07-31T08:01:56;17.90;80.45
20862;DHT22;10591;52.532;13.348;2023-07-31T08:04:27;17.93;80.15
20862;DHT22;10591;52.532;13.348;2023-07-31T08:06:57;17.82;80.76
20862;DHT22;10591;52.532;13.348;2023-07-31T08:09:28;17.84;80.44
20862;DHT22;10591;52.532;13.348;2023-07-31T08:11:59;18.00;80.42
20862;DHT22;10591;52.532;13.348;2023-07-31T08:14:31;17.90;80.46
20862;DHT22;10591;52.532;13.348;2023-07-31T08:17:02;17.88;81.15
20862;DHT22;10591;52.532;13.348;2023-07-31T08:19:33;18.34;80.19
20862;DHT22;10591;52.532;13.348;2023-07-31T08:22:04;18.44;79.60
20862;DHT22;10591;52.532;13.348;2023-07-31T08:24:35;18.44;79.08
20862;DHT22;10591;52.532;13.348;2023-07-31T08:27:06;18.30;79.92
20862;DHT22;10591;52.532;13.348;2023-07-31T08:29:37;18.42;78.50
20862;DHT22;10591;52.532;13.348;2023-07-31T08:32:08;18.33;79.16
20862;DHT22;10591;52.532;13.348;2023-07-31T08:34:39;18.16;79.82
20862;DHT22;10591;52.532;13.348;2023-07-31T08:37:11;18.19;80.00
20862;DHT22;10591;52.532;13.348;2023-07-31T08:39:42;18.54;79.46
20862;DHT22;10591;52.532;13.348;2023-07-31T08:42:12;18.65;78.86
20862;DHT22;10591;52.532;13.348;2023-07-31T08:44:44;18.85;78.13
20862;DHT22;10591;52.532;13.348;2023-07-31T08:47:16;19.14;77.30
20862;DHT22;10591;52.532;13.348;2023-07-31T08:49:47;19.17;76.72
20862;DHT22;10591;52.532;13.348;2023-07-31T08:52:18;19.38;76.58
20862;DHT22;10591;52.532;13.348;2023-07-31T08:54:49;19.32;76.49
20862;DHT22;10591;52.532;13.348;2023-07-31T08:57:19;18.85;78.18
20862;DHT22;10591;52.532;13.348;2023-07-31T08:59:54;18.36;79.66
20862;DHT22;10591;52.532;13.348;2023-07-31T09:02:29;18.38;79.25
20862;DHT22;10591;52.532;13.348;2023-07-31T09:04:59;18.84;79.09
20862;DHT22;10591;52.532;13.348;2023-07-31T09:07:32;19.47;77.45
20862;DHT22;10591;52.532;13.348;2023-07-31T09:10:05;19.65;75.97
20862;DHT22;10591;52.532;13.348;2023-07-31T09:12:36;19.70;75.82
20862;DHT22;10591;52.532;13.348;2023-07-31T09:15:08;19.44;76.09
20862;DHT22;10591;52.532;13.348;2023-07-31T09:17:40;19.31;76.75
20862;DHT22;10591;52.532;13.348;2023-07-31T09:20:16;19.34;76.83
20862;DHT22;10591;52.532;13.348;2023-07-31T09:22:52;19.40;76.53
20862;DHT22;10591;52.532;13.348;2023-07-31T09:25:26;18.86;78.23
20862;DHT22;10591;52.532;13.348;2023-07-31T09:28:03;18.57;79.62
20862;DHT22;10591;52.532;13.348;2023-07-31T09:30:46;18.10;80.85
20862;DHT22;10591;52.532;13.348;2023-07-31T09:33:19;17.84;82.13
20862;DHT22;10591;52.532;13.348;2023-07-31T09:35:50;17.78;82.24
20862;DHT22;10591;52.532;13.348;2023-07-31T09:38:20;17.58;83.02
20862;DHT22;10591;52.532;13.348;2023-07-31T09:40:51;17.33;83.58
20862;DHT22;10591;52.532;13.348;2023-07-31T09:43:23;17.45;83.50
20862;DHT22;10591;52.532;13.348;2023-07-31T09:45:57;17.56;83.74
20862;DHT22;10591;52.532;13.348;2023-07-31T09:48:29;17.86;83.08
20862;DHT22;10591;52.532;13.348;2023-07-31T09:51:02;18.28;81.97
20862;DHT22;10591;52.532;13.348;2023-07-31T09:53:34;18.48;81.03
20862;DHT22;10591;52.532;13.348;2023-07-31T09:56:05;18.68;79.61
20862;DHT22;10591;52.532;13.348;2023-07-31T09:58:36;18.64;78.91
20862;DHT22;10591;52.532;13.348;2023-07-31T10:01:06;18.90;78.54
20862;DHT22;10591;52.532;13.348;2023-07-31T10:03:39;18.96;77.44
20862;DHT22;10591;52.532;13.348;2023-07-31T10:06:10;19.09;77.82
20862;DHT22;10591;52.532;13.348;2023-07-31T10:08:44;19.18;77.51
20862;DHT22;10591;52.532;13.348;2023-07-31T10:11:14;19.48;76.15
20862;DHT22;10591;52.532;13.348;2023-07-31T10:13:46;19.92;75.17
20862;DHT22;10591;52.532;13.348;2023-07-31T10:16:17;19.92;74.98
20862;DHT22;10591;52.532;13.348;2023-07-31T10:18:50;19.72;75.02
20862;DHT22;10591;52.532;13.348;2023-07-31T10:21:24;19.65;75.65
20862;DHT22;10591;52.532;13.348;2023-07-31T10:23:56;19.22;76.57
20862;DHT22;10591;52.532;13.348;2023-07-31T10:26:27;18.90;77.74
20862;DHT22;10591;52.532;13.348;2023-07-31T10:28:58;19.10;78.12
20862;DHT22;10591;52.532;13.348;2023-07-31T10:31:30;19.32;77.92
20862;DHT22;10591;52.532;13.348;2023-07-31T10:34:04;19.46;76.78
20862;DHT22;10591;52.532;13.348;2023-07-31T10:36:34;19.66;76.11
20862;DHT22;10591;52.532;13.348;2023-07-31T10:39:32;19.76;75.51
20862;DHT22;10591;52.532;13.348;2023-07-31T10:41:40;19.73;75.74
20862;DHT22;10591;52.532;13.348;2023-07-31T10:44:13;19.93;75.12
20862;DHT22;10591;52.532;13.348;2023-07-31T10:46:45;20.16;74.57
20862;DHT22;10591;52.532;13.348;2023-07-31T10:49:20;20.41;74.38
20862;DHT22;10591;52.532;13.348;2023-07-31T10:51:49;21.66;70.34
20862;DHT22;10591;52.532;13.348;2023-07-31T10:54:20;21.80;70.46
20862;DHT22;10591;52.532;13.348;2023-07-31T10:56:52;22.16;68.32
20862;DHT22;10591;52.532;13.348;2023-07-31T10:59:27;21.93;68.39
20862;DHT22;10591;52.532;13.348;2023-07-31T11:01:59;21.77;69.41
20862;DHT22;10591;52.532;13.348;2023-07-31T11:04:31;21.87;69.51
20862;DHT22;10591;52.532;13.348;2023-07-31T11:07:03;22.52;66.97
20862;DHT22;10591;52.532;13.348;2023-07-31T11:09:36;21.86;67.57
20862;DHT22;10591;52.532;13.348;2023-07-31T11:12:06;21.92;67.39
20862;DHT22;10591;52.532;13.348;2023-07-31T11:14:38;21.38;68.06
20862;DHT22;10591;52.532;13.348;2023-07-31T11:17:09;20.84;69.27
20862;DHT22;10591;52.532;13.348;2023-07-31T11:19:40;20.94;69.54
20862;DHT22;10591;52.532;13.348;2023-07-31T11:22:10;21.35;67.83
20862;DHT22;10591;52.532;13.348;2023-07-31T11:24:42;21.39;67.72
20862;DHT22;10591;52.532;13.348;2023-07-31T11:27:14;21.39;67.73
20862;DHT22;10591;52.532;13.348;2023-07-31T11:29:51;21.25;67.58
20862;DHT22;10591;52.532;13.348;2023-07-31T11:32:18;21.00;68.08
20862;DHT22;10591;52.532;13.348;2023-07-31T11:34:53;20.89;68.31
20862;DHT22;10591;52.532;13.348;2023-07-31T11:37:25;20.79;69.35
20862;DHT22;10591;52.532;13.348;2023-07-31T11:40:03;20.78;68.60
20862;DHT22;10591;52.532;13.348;2023-07-31T11:42:38;20.57;69.25
20862;DHT22;10591;52.532;13.348;2023-07-31T11:45:10;20.62;68.27
20862;DHT22;10591;52.532;13.348;2023-07-31T11:47:40;20.60;67.87
20862;DHT22;10591;52.532;13.348;2023-07-31T11:50:11;20.56;68.60
20862;DHT22;10591;52.532;13.348;2023-07-31T11:52:44;20.69;68.51
20862;DHT22;10591;52.532;13.348;2023-07-31T11:55:16;20.67;67.80
20862;DHT22;10591;52.532;13.348;2023-07-31T11:57:48;21.00;66.92
20862;DHT22;10591;52.532;13.348;2023-07-31T12:00:22;20.80;67.51
20862;DHT22;10591;52.532;13.348;2023-07-31T12:02:53;20.92;67.44
20862;DHT22;10591;52.532;13.348;2023-07-31T12:05:24;20.81;67.62
20862;DHT22;10591;52.532;13.348;2023-07-31T12:07:55;20.74;67.23
20862;DHT22;10591;52.532;13.348;2023-07-31T12:10:31;20.90;66.95
20862;DHT22;10591;52.532;13.348;2023-07-31T12:13:07;20.67;68.76
20862;DHT22;10591;52.532;13.348;2023-07-31T12:15:43;20.97;67.62
20862;DHT22;10591;52.532;13.348;2023-07-31T12:18:15;21.28;66.18
20862;DHT22;10591;52.532;13.348;2023-07-31T12:20:48;21.94;64.92
20862;DHT22;10591;52.532;13.348;2023-07-31T12:23:31;22.36;63.19
20862;DHT22;10591;52.532;13.348;2023-07-31T12:26:10;22.54;62.33
20862;DHT22;10591;52.532;13.348;2023-07-31T12:31:20;22.33;62.86
20862;DHT22;10591;52.532;13.348;2023-07-31T12:33:52;22.10;63.00
20862;DHT22;10591;52.532;13.348;2023-07-31T12:36:24;22.18;63.07
20862;DHT22;10591;52.532;13.348;2023-07-31T12:38:55;22.66;61.82
20862;DHT22;10591;52.532;13.348;2023-07-31T12:41:29;22.90;61.08
20862;DHT22;10591;52.532;13.348;2023-07-31T12:44:00;23.11;60.45
20862;DHT22;10591;52.532;13.348;2023-07-31T12:46:30;23.04;60.41
20862;DHT22;10591;52.532;13.348;2023-07-31T12:49:01;23.37;59.70
20862;DHT22;10591;52.532;13.348;2023-07-31T12:51:34;23.13;60.18
20862;DHT22;10591;52.532;13.348;2023-07-31T12:54:06;22.58;60.93
20862;DHT22;10591;52.532;13.348;2023-07-31T12:56:37;22.25;62.29
20862;DHT22;10591;52.532;13.348;2023-07-31T12:59:08;21.93;63.18
20862;DHT22;10591;52.532;13.348;2023-07-31T13:01:39;21.77;63.74
20862;DHT22;10591;52.532;13.348;2023-07-31T13:04:09;22.01;63.13
20862;DHT22;10591;52.532;13.348;2023-07-31T13:06:40;21.66;64.36
20862;DHT22;10591;52.532;13.348;2023-07-31T13:09:11;21.01;69.52
20862;DHT22;10591;52.532;13.348;2023-07-31T13:11:43;20.74;70.12
20862;DHT22;10591;52.532;13.348;2023-07-31T13:14:15;21.20;69.08
20862;DHT22;10591;52.532;13.348;2023-07-31T13:16:48;21.82;67.20
20862;DHT22;10591;52.532;13.348;2023-07-31T13:19:19;22.11;65.34
20862;DHT22;10591;52.532;13.348;2023-07-31T13:21:49;22.29;65.67
20862;DHT22;10591;52.532;13.348;2023-07-31T13:24:20;22.65;64.97
20862;DHT22;10591;52.532;13.348;2023-07-31T13:26:51;22.58;64.67
20862;DHT22;10591;52.532;13.348;2023-07-31T13:29:21;22.58;64.72
20862;DHT22;10591;52.532;13.348;2023-07-31T13:31:53;22.39;65.02
20862;DHT22;10591;52.532;13.348;2023-07-31T13:34:25;22.40;64.40
20862;DHT22;10591;52.532;13.348;2023-07-31T13:36:56;22.39;63.85
20862;DHT22;10591;52.532;13.348;2023-07-31T13:39:28;22.89;62.74
20862;DHT22;10591;52.532;13.348;2023-07-31T13:41:59;23.10;61.70
20862;DHT22;10591;52.532;13.348;2023-07-31T13:44:30;23.73;59.76
20862;DHT22;10591;52.532;13.348;2023-07-31T13:47:00;23.90;58.51
20862;DHT22;10591;52.532;13.348;2023-07-31T13:49:32;23.97;58.88
20862;DHT22;10591;52.532;13.348;2023-07-31T13:52:04;23.96;58.55
20862;DHT22;10591;52.532;13.348;2023-07-31T13:54:35;24.14;58.24
20862;DHT22;10591;52.532;13.348;2023-07-31T13:57:06;24.37;57.57
20862;DHT22;10591;52.532;13.348;2023-07-31T13:59:38;23.70;59.06
20862;DHT22;10591;52.532;13.348;2023-07-31T14:02:09;23.15;59.76
20862;DHT22;10591;52.532;13.348;2023-07-31T14:04:39;23.04;60.19
20862;DHT22;10591;52.532;13.348;2023-07-31T14:07:11;23.24;60.01
20862;DHT22;10591;52.532;13.348;2023-07-31T14:09:41;23.26;60.23
20862;DHT22;10591;52.532;13.348;2023-07-31T14:12:12;23.08;60.33
20862;DHT22;10591;52.532;13.348;2023-07-31T14:14:44;23.12;60.20
20862;DHT22;10591;52.532;13.348;2023-07-31T14:17:14;23.06;60.56
20862;DHT22;10591;52.532;13.348;2023-07-31T14:19:46;23.21;59.74
20862;DHT22;10591;52.532;13.348;2023-07-31T14:22:29;23.18;60.16
20862;DHT22;10591;52.532;13.348;2023-07-31T14:24:59;22.93;60.53
20862;DHT22;10591;52.532;13.348;2023-07-31T14:27:30;22.68;61.52
20862;DHT22;10591;52.532;13.348;2023-07-31T14:30:01;22.83;61.51
20862;DHT22;10591;52.532;13.348;2023-07-31T14:32:32;22.86;60.95
20862;DHT22;10591;52.532;13.348;2023-07-31T14:35:04;23.01;61.15
20862;DHT22;10591;52.532;13.348;2023-07-31T14:37:39;23.08;60.59
20862;DHT22;10591;52.532;13.348;2023-07-31T14:40:12;22.88;60.86
20862;DHT22;10591;52.532;13.348;2023-07-31T14:42:43;22.75;61.29
20862;DHT22;10591;52.532;13.348;2023-07-31T14:45:13;22.65;61.52
20862;DHT22;10591;52.532;13.348;2023-07-31T14:47:44;22.28;61.90
20862;DHT22;10591;52.532;13.348;2023-07-31T14:50:15;22.35;61.53
20862;DHT22;10591;52.532;13.348;2023-07-31T14:52:48;22.10;61.61
20862;DHT22;10591;52.532;13.348;2023-07-31T14:55:19;22.23;61.69
20862;DHT22;10591;52.532;13.348;2023-07-31T14:57:50;22.06;62.55
20862;DHT22;10591;52.532;13.348;2023-07-31T15:00:21;22.07;62.97
20862;DHT22;10591;52.532;13.348;2023-07-31T15:02:54;21.76;63.21
20862;DHT22;10591;52.532;13.348;2023-07-31T15:05:24;21.89;62.82
20862;DHT22;10591;52.532;13.348;2023-07-31T15:07:56;21.84;62.81
20862;DHT22;10591;52.532;13.348;2023-07-31T15:10:26;21.74;63.12
20862;DHT22;10591;52.532;13.348;2023-07-31T15:12:57;21.58;63.32
20862;DHT22;10591;52.532;13.348;2023-07-31T15:15:28;21.53;63.53
20862;DHT22;10591;52.532;13.348;2023-07-31T15:17:59;21.53;63.49
20862;DHT22;10591;52.532;13.348;2023-07-31T15:20:29;21.62;63.74
20862;DHT22;10591;52.532;13.348;2023-07-31T15:23:02;21.98;63.01
20862;DHT22;10591;52.532;13.348;2023-07-31T15:25:33;22.27;62.88
20862;DHT22;10591;52.532;13.348;2023-07-31T15:28:04;22.36;62.48
20862;DHT22;10591;52.532;13.348;2023-07-31T15:30:37;22.33;62.74
20862;DHT22;10591;52.532;13.348;2023-07-31T15:33:08;22.10;62.97
20862;DHT22;10591;52.532;13.348;2023-07-31T15:35:39;21.96;63.12
20862;DHT22;10591;52.532;13.348;2023-07-31T15:38:10;21.67;64.02
20862;DHT22;10591;52.532;13.348;2023-07-31T15:40:41;21.68;64.23
20862;DHT22;10591;52.532;13.348;2023-07-31T15:43:14;21.87;63.78
20862;DHT22;10591;52.532;13.348;2023-07-31T15:45:44;21.88;63.94
20862;DHT22;10591;52.532;13.348;2023-07-31T15:48:15;21.66;64.69